Time;durP1;ratioP1;P1;durP2;ratioP2;P2;SDS_P1;SDS_P2;PMS_P1;PMS_P2;Temp;Humidity;BMP_temperature;BMP_pressure;BME280_temperature;BME280_humidity;BME280_pressure;Samples;Min_cycle;Max_cycle;Signal;HPM_P1;HPM_P2
2020/12/22 00:01:53;;;;;;;2.30;2.10;;;;;;;11.17;100.00;99282.44;5094237;28;20622;-67
2020/12/22 00:04:20;;;;;;;3.47;1.65;;;;;;;11.19;100.00;99287.69;5094545;28;20242;-67
2020/12/22 00:06:47;;;;;;;2.30;1.88;;;;;;;11.11;100.00;99284.66;5085966;28;20702;-67
2020/12/22 00:09:14;;;;;;;2.60;2.22;;;;;;;11.15;100.00;99291.59;5073501;28;20231;-67
2020/12/22 00:11:41;;;;;;;4.00;3.15;;;;;;;11.21;100.00;99293.84;5073519;28;20292;-67
2020/12/22 00:14:07;;;;;;;3.90;3.10;;;;;;;11.16;100.00;99287.91;5073900;28;20207;-67
2020/12/22 00:16:35;;;;;;;3.58;2.90;;;;;;;11.23;100.00;99284.69;5073494;28;20201;-67
2020/12/22 00:19:02;;;;;;;3.58;3.00;;;;;;;11.35;100.00;99284.84;5073865;28;20196;-67
2020/12/22 00:21:31;;;;;;;3.88;2.90;;;;;;;11.32;100.00;99291.31;5072819;28;20196;-67
2020/12/22 00:23:58;;;;;;;2.70;2.42;;;;;;;11.30;100.00;99293.25;5073550;28;20665;-67
2020/12/22 00:26:25;;;;;;;4.90;2.80;;;;;;;11.31;100.00;99292.28;5073310;28;20277;-67
2020/12/22 00:28:52;;;;;;;3.88;2.55;;;;;;;11.30;100.00;99281.59;5074529;28;20234;-67
2020/12/22 00:31:18;;;;;;;3.05;2.50;;;;;;;11.26;100.00;99286.31;5073510;28;20627;-68
2020/12/22 00:33:45;;;;;;;3.97;3.05;;;;;;;11.43;100.00;99288.78;5073027;28;20232;-67
2020/12/22 00:36:12;;;;;;;2.83;2.55;;;;;;;11.41;100.00;99292.53;5073367;28;20560;-67
2020/12/22 00:38:38;;;;;;;3.90;2.90;;;;;;;11.45;100.00;99280.59;5084514;28;20207;-67
2020/12/22 00:41:20;;;;;;;3.00;2.70;;;;;;;11.36;100.00;99279.38;5092571;28;20216;-67
2020/12/22 00:43:47;;;;;;;2.83;2.50;;;;;;;11.49;100.00;99271.34;5070983;28;20999;-67
2020/12/22 00:46:15;;;;;;;2.88;2.53;;;;;;;11.54;100.00;99287.22;5070839;28;20235;-67
2020/12/22 00:48:44;;;;;;;3.00;2.40;;;;;;;11.51;100.00;99288.28;5071070;28;20208;-67
2020/12/22 00:51:13;;;;;;;2.10;1.90;;;;;;;11.46;100.00;99277.81;5070672;28;20235;-67
2020/12/22 00:53:41;;;;;;;3.50;2.72;;;;;;;11.51;100.00;99284.69;5070691;28;20196;-67
2020/12/22 00:56:11;;;;;;;2.40;2.17;;;;;;;11.42;100.00;99278.97;5071077;28;20298;-67
2020/12/22 00:58:38;;;;;;;3.72;2.33;;;;;;;11.47;100.00;99274.13;5050331;28;20200;-67
2020/12/22 01:01:05;;;;;;;2.90;2.22;;;;;;;11.50;100.00;99270.34;5050633;28;20239;-67
2020/12/22 01:03:31;;;;;;;2.67;2.22;;;;;;;11.46;100.00;99298.47;5050556;28;20209;-67
2020/12/22 01:05:57;;;;;;;2.20;2.00;;;;;;;11.52;100.00;99291.84;5050760;28;20215;-67
2020/12/22 01:08:24;;;;;;;3.00;2.05;;;;;;;11.50;100.00;99286.53;5056935;28;20282;-67
2020/12/22 01:10:50;;;;;;;2.40;1.98;;;;;;;11.59;100.00;99279.66;5070460;28;20698;-67
2020/12/22 01:13:17;;;;;;;2.67;2.30;;;;;;;11.60;100.00;99287.66;5070254;28;20254;-67
2020/12/22 01:15:43;;;;;;;2.88;1.55;;;;;;;11.55;100.00;99297.88;5070703;28;20208;-65
2020/12/22 01:18:10;;;;;;;2.40;1.70;;;;;;;11.47;100.00;99287.59;5070252;28;20196;-67
2020/12/22 01:20:36;;;;;;;2.42;2.22;;;;;;;11.59;100.00;99293.16;5079088;28;20352;-67
2020/12/22 01:23:03;;;;;;;2.22;1.73;;;;;;;11.54;100.00;99292.59;5092784;28;20210;-66
2020/12/22 01:25:29;;;;;;;2.38;1.60;;;;;;;11.64;100.00;99291.84;5093040;28;20200;-68
2020/12/22 01:27:55;;;;;;;2.47;2.00;;;;;;;11.67;100.00;99288.09;5092777;28;20196;-68
2020/12/22 01:30:22;;;;;;;2.00;1.40;;;;;;;11.70;100.00;99295.97;5092521;28;20276;-68
2020/12/22 01:32:49;;;;;;;2.72;2.30;;;;;;;11.65;100.00;99300.84;5092656;28;20184;-67
2020/12/22 01:35:17;;;;;;;2.10;1.90;;;;;;;11.63;100.00;99295.53;5092572;28;20602;-67
2020/12/22 01:37:43;;;;;;;2.47;2.28;;;;;;;11.59;100.00;99298.53;5088541;28;20185;-67
2020/12/22 01:40:09;;;;;;;3.42;2.30;;;;;;;11.73;100.00;99295.75;5090341;28;20402;-67
2020/12/22 01:42:36;;;;;;;2.55;1.75;;;;;;;11.71;100.00;99281.50;5092359;28;20204;-67
2020/12/22 01:45:02;;;;;;;2.33;1.80;;;;;;;11.75;100.00;99285.75;5092660;28;20258;-67
2020/12/22 01:47:28;;;;;;;2.65;1.85;;;;;;;11.71;100.00;99294.16;5092918;28;20777;-67
2020/12/22 01:49:55;;;;;;;2.58;2.13;;;;;;;11.69;100.00;99289.72;5092345;28;20629;-67
2020/12/22 01:52:23;;;;;;;2.15;1.92;;;;;;;11.65;100.00;99298.13;5092430;28;20223;-67
2020/12/22 01:54:49;;;;;;;2.53;1.98;;;;;;;11.72;100.00;99304.84;5091072;28;20196;-67
2020/12/22 01:57:15;;;;;;;2.25;1.60;;;;;;;11.65;100.00;99319.72;5092397;28;20679;-66
2020/12/22 01:59:42;;;;;;;2.22;1.90;;;;;;;11.70;100.00;99317.56;5092635;28;20537;-66
2020/12/22 02:02:08;;;;;;;2.55;2.25;;;;;;;11.73;100.00;99306.56;5092548;28;20606;-66
2020/12/22 02:04:36;;;;;;;1.92;1.55;;;;;;;11.71;100.00;99303.09;5092358;28;20180;-66
2020/12/22 02:07:02;;;;;;;2.30;2.00;;;;;;;11.72;100.00;99307.53;5087942;28;20192;-67
2020/12/22 02:09:30;;;;;;;2.70;2.30;;;;;;;11.74;100.00;99305.59;5072119;28;20666;-67
2020/12/22 02:11:56;;;;;;;1.83;1.73;;;;;;;11.72;100.00;99318.31;5072099;28;20705;-67
2020/12/22 02:14:22;;;;;;;1.75;1.65;;;;;;;11.76;100.00;99321.66;5071747;28;20196;-67
2020/12/22 02:16:49;;;;;;;2.28;1.83;;;;;;;11.69;100.00;99316.69;5086646;28;20200;-66
2020/12/22 02:19:15;;;;;;;1.73;1.63;;;;;;;11.71;100.00;99318.41;5092172;28;20272;-67
2020/12/22 02:21:42;;;;;;;1.52;1.23;;;;;;;11.76;100.00;99325.25;5092229;28;20269;-66
2020/12/22 02:24:09;;;;;;;1.45;1.15;;;;;;;11.74;100.00;99316.38;5083514;28;20189;-66
2020/12/22 02:26:35;;;;;;;1.20;1.10;;;;;;;11.69;100.00;99313.16;5071876;28;20659;-66
2020/12/22 02:29:01;;;;;;;1.30;1.20;;;;;;;11.74;100.00;99299.34;5071923;28;20215;-67
2020/12/22 02:31:27;;;;;;;1.23;1.02;;;;;;;11.63;100.00;99295.53;5071877;28;20212;-67
2020/12/22 02:33:54;;;;;;;1.63;1.52;;;;;;;11.65;100.00;99287.34;5071992;28;20192;-68
2020/12/22 02:36:20;;;;;;;1.20;1.10;;;;;;;11.74;100.00;99289.41;5071793;28;20222;-67
2020/12/22 02:38:48;;;;;;;1.50;1.10;;;;;;;11.79;100.00;99292.66;5072811;28;20279;-67
2020/12/22 02:41:14;;;;;;;1.30;1.20;;;;;;;11.76;100.00;99294.69;5091394;28;20203;-66
2020/12/22 02:43:41;;;;;;;1.20;0.90;;;;;;;11.82;100.00;99305.06;5091611;28;20253;-67
2020/12/22 02:46:07;;;;;;;3.47;1.05;;;;;;;11.78;100.00;99303.53;5091286;28;20373;-67
2020/12/22 02:48:34;;;;;;;1.30;1.02;;;;;;;11.79;100.00;99302.59;5078760;28;20197;-67
2020/12/22 02:51:00;;;;;;;1.50;1.20;;;;;;;11.91;100.00;99304.47;5071409;28;20654;-67
2020/12/22 02:53:27;;;;;;;0.90;0.60;;;;;;;11.89;100.00;99307.31;5072836;28;20193;-67
2020/12/22 02:55:54;;;;;;;1.63;1.02;;;;;;;11.86;100.00;99290.41;5071249;28;20196;-68
2020/12/22 02:58:20;;;;;;;1.58;1.05;;;;;;;11.87;100.00;99294.81;5072891;28;20278;-68
2020/12/22 03:00:47;;;;;;;1.00;0.88;;;;;;;11.93;100.00;99294.44;5091254;28;20200;-68
2020/12/22 03:03:13;;;;;;;1.25;0.90;;;;;;;12.03;100.00;99297.38;5091733;28;20238;-67
2020/12/22 03:05:42;;;;;;;1.23;1.13;;;;;;;11.99;100.00;99306.66;5092586;28;20215;-67
2020/12/22 03:08:09;;;;;;;1.77;1.00;;;;;;;12.06;100.00;99303.44;5089589;28;20557;-67
2020/12/22 03:10:36;;;;;;;1.10;0.88;;;;;;;12.10;100.00;99314.88;5074659;28;20246;-68
2020/12/22 03:13:03;;;;;;;1.20;1.10;;;;;;;12.11;100.00;99313.91;5074967;28;20181;-68
2020/12/22 03:15:29;;;;;;;2.35;1.17;;;;;;;11.96;100.00;99310.44;5075177;28;20568;-65
2020/12/22 03:17:56;;;;;;;1.42;1.00;;;;;;;11.85;100.00;99311.13;5075046;28;20200;-66
2020/12/22 03:20:24;;;;;;;1.58;1.00;;;;;;;11.86;100.00;99310.16;5075004;28;20548;-66
2020/12/22 03:22:50;;;;;;;1.20;1.10;;;;;;;11.91;100.00;99307.16;5090541;28;20203;-66
2020/12/22 03:25:16;;;;;;;0.93;0.75;;;;;;;11.94;100.00;99308.78;5095198;28;20287;-66
2020/12/22 03:27:42;;;;;;;1.13;0.85;;;;;;;11.95;100.00;99299.75;5094663;28;20226;-66
2020/12/22 03:30:11;;;;;;;1.05;0.75;;;;;;;11.83;100.00;99290.63;5094571;28;20220;-67
2020/12/22 03:32:38;;;;;;;1.20;0.82;;;;;;;11.93;100.00;99288.19;5094927;28;20287;-66
2020/12/22 03:35:05;;;;;;;1.10;1.00;;;;;;;11.85;100.00;99291.41;5094627;28;20277;-66
2020/12/22 03:37:31;;;;;;;2.22;1.10;;;;;;;11.85;100.00;99296.78;5094915;28;20188;-67
2020/12/22 03:40:00;;;;;;;1.33;0.80;;;;;;;11.84;100.00;99292.34;5078007;28;20212;-67
2020/12/22 03:42:27;;;;;;;1.00;0.80;;;;;;;11.85;100.00;99305.75;5074119;28;20203;-67
2020/12/22 03:44:53;;;;;;;0.90;0.70;;;;;;;11.85;100.00;99303.03;5074333;28;20751;-65
2020/12/22 03:47:20;;;;;;;1.45;0.70;;;;;;;11.78;100.00;99299.03;5074643;28;20227;-67
2020/12/22 03:49:46;;;;;;;1.75;0.68;;;;;;;11.80;100.00;99301.59;5080377;28;20211;-67
2020/12/22 03:52:13;;;;;;;0.90;0.80;;;;;;;11.85;100.00;99296.78;5076204;28;20292;-66
2020/12/22 03:54:39;;;;;;;1.08;0.82;;;;;;;11.93;100.00;99291.75;5088183;28;20184;-67
2020/12/22 03:57:06;;;;;;;0.90;0.70;;;;;;;11.81;100.00;99295.25;5094201;28;20192;-67
2020/12/22 03:59:33;;;;;;;0.85;0.60;;;;;;;11.85;100.00;99291.41;5094179;28;20220;-67
2020/12/22 04:02:00;;;;;;;0.90;0.60;;;;;;;11.91;100.00;99287.44;5094047;28;20203;-66
2020/12/22 04:04:27;;;;;;;0.80;0.70;;;;;;;11.84;100.00;99301.28;5094099;28;20199;-66
2020/12/22 04:06:53;;;;;;;0.80;0.57;;;;;;;11.85;100.00;99299.47;5093997;28;20189;-66
2020/12/22 04:09:20;;;;;;;1.00;0.70;;;;;;;11.90;100.00;99302.75;5093953;28;20211;-66
2020/12/22 04:11:46;;;;;;;1.10;0.60;;;;;;;11.96;100.00;99299.66;5087781;28;20208;-66
2020/12/22 04:14:13;;;;;;;0.80;0.60;;;;;;;11.94;100.00;99296.19;5073490;28;20200;-65
2020/12/22 04:16:40;;;;;;;0.80;0.65;;;;;;;11.85;100.00;99294.94;5073522;28;20208;-66
2020/12/22 04:19:07;;;;;;;2.08;0.73;;;;;;;11.93;100.00;99298.97;5078339;28;20192;-66
2020/12/22 04:21:35;;;;;;;1.20;0.77;;;;;;;11.84;100.00;99292.34;5093868;28;20286;-66
2020/12/22 04:24:01;;;;;;;1.00;0.80;;;;;;;11.86;100.00;99299.34;5094026;28;20703;-66
2020/12/22 04:26:27;;;;;;;0.95;0.75;;;;;;;11.84;100.00;99298.59;5093802;28;20222;-66
2020/12/22 04:28:54;;;;;;;0.82;0.60;;;;;;;11.86;100.00;99302.06;5093575;28;20220;-66
2020/12/22 04:31:21;;;;;;;0.80;0.60;;;;;;;11.83;100.00;99302.28;5093822;28;20259;-67
2020/12/22 04:33:48;;;;;;;0.80;0.75;;;;;;;11.76;100.00;99298.28;5093656;28;20195;-67
2020/12/22 04:36:14;;;;;;;0.77;0.60;;;;;;;11.70;100.00;99301.38;5093803;28;20573;-67
2020/12/22 04:38:41;;;;;;;1.10;1.00;;;;;;;11.81;100.00;99306.91;5093684;28;20200;-67
2020/12/22 04:41:12;;;;;;;0.90;0.80;;;;;;;11.88;100.00;99289.38;5081407;28;20610;-66
2020/12/22 04:43:39;;;;;;;1.10;1.00;;;;;;;11.86;100.00;99293.97;5073151;28;20195;-66
2020/12/22 04:46:06;;;;;;;1.27;1.10;;;;;;;11.82;100.00;99305.94;5072692;28;20227;-66
2020/12/22 04:48:36;;;;;;;1.35;1.15;;;;;;;11.84;100.00;99305.84;5072961;28;20275;-66
2020/12/22 04:51:05;;;;;;;1.25;1.15;;;;;;;11.80;100.00;99305.19;5072942;28;20231;-67
2020/12/22 04:53:32;;;;;;;1.33;1.23;;;;;;;11.80;100.00;99302.50;5073463;28;20634;-67
2020/12/22 04:55:59;;;;;;;1.65;1.33;;;;;;;11.86;100.00;99310.16;5072750;28;20604;-67
2020/12/22 04:58:27;;;;;;;1.27;1.00;;;;;;;11.96;100.00;99301.47;5073042;28;20295;-67
2020/12/22 05:00:55;;;;;;;1.00;0.80;;;;;;;11.93;100.00;99312.47;5072939;28;20216;-66
2020/12/22 05:03:22;;;;;;;0.80;0.60;;;;;;;12.00;100.00;99311.06;5072626;28;20204;-67
2020/12/22 05:05:48;;;;;;;1.23;1.13;;;;;;;11.96;100.00;99318.53;5072464;28;20288;-66
2020/12/22 05:08:15;;;;;;;0.90;0.70;;;;;;;12.03;100.00;99319.84;5072561;28;20185;-66
2020/12/22 05:10:42;;;;;;;1.00;0.63;;;;;;;12.03;100.00;99321.66;5071942;28;20295;-65
2020/12/22 05:13:10;;;;;;;1.80;1.08;;;;;;;11.96;100.00;99315.84;5072808;28;20573;-68
2020/12/22 05:15:39;;;;;;;1.00;0.70;;;;;;;11.94;100.00;99312.38;5072393;28;20231;-66
2020/12/22 05:18:07;;;;;;;0.90;0.70;;;;;;;11.99;100.00;99310.22;5072303;28;20185;-68
2020/12/22 05:20:33;;;;;;;0.95;0.85;;;;;;;12.03;100.00;99314.44;5072668;28;20703;-67
2020/12/22 05:22:59;;;;;;;1.10;0.80;;;;;;;12.00;100.00;99316.47;5072167;28;20204;-67
2020/12/22 05:25:28;;;;;;;0.98;0.75;;;;;;;12.04;100.00;99313.47;5071997;28;20201;-67
2020/12/22 05:27:56;;;;;;;1.42;1.00;;;;;;;12.06;100.00;99313.38;5072160;28;20635;-66
2020/12/22 05:30:23;;;;;;;0.90;0.80;;;;;;;11.99;100.00;99315.63;5072214;28;20624;-67
2020/12/22 05:32:50;;;;;;;1.52;1.15;;;;;;;12.03;100.00;99309.03;5072206;28;20211;-66
2020/12/22 05:35:17;;;;;;;1.10;0.80;;;;;;;11.99;100.00;99315.63;5072581;28;20235;-67
2020/12/22 05:37:46;;;;;;;1.20;0.88;;;;;;;12.02;100.00;99309.13;5072281;28;20209;-66
2020/12/22 05:40:12;;;;;;;0.90;0.70;;;;;;;12.04;100.00;99309.91;5071792;28;20185;-67
2020/12/22 05:42:38;;;;;;;1.60;1.02;;;;;;;12.15;100.00;99301.06;5072456;28;20218;-67
2020/12/22 05:45:06;;;;;;;1.20;0.75;;;;;;;12.13;100.00;99314.66;5071645;28;20242;-66
2020/12/22 05:47:33;;;;;;;0.80;0.70;;;;;;;12.15;100.00;99309.16;5072394;28;20618;-67
2020/12/22 05:50:01;;;;;;;0.80;0.60;;;;;;;12.22;100.00;99323.97;5082067;28;20220;-66
2020/12/22 05:52:29;;;;;;;0.90;0.80;;;;;;;12.16;100.00;99319.84;5092439;28;20653;-66
2020/12/22 05:54:57;;;;;;;1.20;0.70;;;;;;;12.14;100.00;99319.06;5092098;28;20199;-67
2020/12/22 05:57:25;;;;;;;1.10;0.85;;;;;;;12.15;100.00;99311.88;5092050;28;20207;-67
2020/12/22 05:59:51;;;;;;;1.00;0.70;;;;;;;12.19;100.00;99319.66;5092139;28;20180;-66
2020/12/22 06:02:28;;;;;;;0.90;0.60;;;;;;;12.18;100.00;99312.50;5092451;28;20229;-68
2020/12/22 06:04:57;;;;;;;0.90;0.63;;;;;;;12.17;100.00;99324.28;5092314;28;20275;-66
2020/12/22 06:07:24;;;;;;;1.10;0.77;;;;;;;12.22;100.00;99316.72;5088771;28;20184;-66
2020/12/22 06:09:50;;;;;;;1.20;0.88;;;;;;;12.16;100.00;99325.22;5082929;28;20334;-66
2020/12/22 06:12:17;;;;;;;1.02;0.70;;;;;;;12.23;100.00;99331.06;5071491;28;20686;-66
2020/12/22 06:14:46;;;;;;;0.90;0.70;;;;;;;12.22;100.00;99332.91;5071775;28;20196;-66
2020/12/22 06:17:13;;;;;;;1.10;0.90;;;;;;;12.18;100.00;99333.25;5072003;28;20188;-66
2020/12/22 06:19:40;;;;;;;1.10;0.77;;;;;;;12.21;100.00;99328.50;5071963;28;20355;-66
2020/12/22 06:22:10;;;;;;;4.20;0.90;;;;;;;12.20;100.00;99334.84;5071905;28;20263;-67
2020/12/22 06:24:37;;;;;;;1.00;0.90;;;;;;;12.14;100.00;99337.13;5072077;28;20548;-67
2020/12/22 06:27:06;;;;;;;0.90;0.80;;;;;;;12.27;100.00;99346.94;5071958;28;20654;-67
2020/12/22 06:29:33;;;;;;;1.45;0.95;;;;;;;12.19;100.00;99330.44;5071131;28;20291;-67
2020/12/22 06:32:24;;;;;;;1.27;1.00;;;;;;;12.20;100.00;99340.25;5077258;28;20312;-67
2020/12/22 06:34:51;;;;;;;1.88;0.80;;;;;;;12.20;100.00;99340.25;5086647;28;20192;-67
2020/12/22 06:37:23;;;;;;;1.00;0.90;;;;;;;12.15;100.00;99328.91;5090659;28;20329;-67
2020/12/22 06:39:50;;;;;;;5.28;2.58;;;;;;;12.25;100.00;99340.78;5093516;28;20185;-66
2020/12/22 06:42:44;;;;;;;1.73;1.20;;;;;;;12.29;100.00;99328.81;5080380;28;20290;-66
2020/12/22 06:45:30;;;;;;;1.45;1.00;;;;;;;12.20;100.00;99332.16;5074785;28;20305;-67
2020/12/22 06:47:57;;;;;;;3.85;2.25;;;;;;;12.22;100.00;99324.81;5075596;28;20184;-66
2020/12/22 06:50:39;;;;;;;1.10;1.00;;;;;;;12.29;100.00;99338.75;5076230;28;20311;-67
2020/12/22 06:53:06;;;;;;;1.00;0.80;;;;;;;12.23;100.00;99355.38;5091569;28;20662;-67
2020/12/22 06:55:49;;;;;;;1.13;1.02;;;;;;;12.17;100.00;99343.19;5095646;28;20275;-68
2020/12/22 06:58:37;;;;;;;2.40;1.50;;;;;;;12.22;100.00;99349.13;5095131;28;20207;-68
2020/12/22 07:01:31;;;;;;;1.58;0.90;;;;;;;12.22;100.00;99345.56;5095260;28;20237;-68
2020/12/22 07:04:20;;;;;;;1.27;1.08;;;;;;;12.29;100.00;99357.66;5068656;28;20200;-67
2020/12/22 07:06:56;;;;;;;0.85;0.50;;;;;;;12.26;100.00;99356.03;5080834;28;20189;-67
2020/12/22 07:09:25;;;;;;;0.93;0.80;;;;;;;12.29;100.00;99352.25;5074439;28;20238;-68
2020/12/22 07:11:53;;;;;;;0.98;0.82;;;;;;;12.22;100.00;99359.91;5074378;28;20299;-67
2020/12/22 07:14:20;;;;;;;1.75;0.80;;;;;;;12.23;100.00;99363.47;5074717;28;20195;-67
2020/12/22 07:16:59;;;;;;;1.10;0.80;;;;;;;12.21;100.00;99365.41;5074944;28;20195;-67
2020/12/22 07:19:28;;;;;;;2.35;1.05;;;;;;;12.26;100.00;99372.22;5094093;28;20187;-67
2020/12/22 07:21:55;;;;;;;1.17;0.70;;;;;;;12.13;100.00;99376.75;5092235;28;20535;-68
2020/12/22 07:24:23;;;;;;;0.90;0.70;;;;;;;12.22;100.00;99373.41;5091867;28;20630;-67
2020/12/22 07:26:49;;;;;;;0.90;0.80;;;;;;;12.20;100.00;99382.59;5074392;28;20208;-67
2020/12/22 07:29:16;;;;;;;1.05;0.77;;;;;;;12.19;100.00;99388.94;5074429;28;20185;-68
2020/12/22 07:31:42;;;;;;;1.38;0.85;;;;;;;12.28;100.00;99391.03;5074064;28;20307;-67
2020/12/22 07:34:10;;;;;;;1.00;0.70;;;;;;;12.27;100.00;99403.66;5090363;28;20196;-67
2020/12/22 07:36:36;;;;;;;1.67;0.80;;;;;;;12.27;100.00;99403.66;5077522;28;20194;-67
2020/12/22 07:39:17;;;;;;;1.55;1.05;;;;;;;12.27;100.00;99408.19;5073895;28;20298;-67
2020/12/22 07:41:45;;;;;;;1.45;1.10;;;;;;;12.36;100.00;99404.00;5075160;28;20203;-67
2020/12/22 07:44:13;;;;;;;1.15;0.93;;;;;;;12.37;100.00;99398.50;5085865;28;20690;-67
2020/12/22 07:46:40;;;;;;;2.17;1.00;;;;;;;12.41;100.00;99396.44;5086063;28;20374;-67
2020/12/22 07:49:07;;;;;;;1.35;0.93;;;;;;;12.45;100.00;99396.13;5074278;28;20624;-67
2020/12/22 07:51:34;;;;;;;1.15;1.05;;;;;;;12.34;100.00;99397.84;5085863;28;20211;-69
2020/12/22 07:54:02;;;;;;;1.10;0.88;;;;;;;12.41;100.00;99391.88;5085493;28;20279;-67
